»·PEaware :: FDX224 KLAS-KLAX

FDX224 :: KLAS-KLAX

FLIGHT INFORMATION

Flight Status: Arrived
Operator:
Federal Express
More flights by this operator :: More flights under this callsign
Pilot: Matteo S. (9898)
Aircraft: Unknown
(B77F)
More flights by this aircraft type
Origin: KLAS McCarran Intl
United States
Destination: KLAX Los Angeles Intl
United States
More flights between these airports :: More routes between these airports
Route: +BOACH6 HEC RIIVR3
File this flight plan on PilotEdge
Remarks:
Altitude:
(Current/Filed)
28,000ft
Speed:
(Current/Filed)
450kts
Departed: 22-Oct-16 07:58 AM
Arrived: 22-Oct-16 08:39 AM
Distance/Time
Traveled:
205nm/0:41
Distance/Time
To Go:
Arrived

Flight Plot

Page will automatically refresh every two minutes.


Map Options




Map Legend


Flown Route
Filed Route
Departure Airport
Arrival Airport
Navaid (VOR, NDB)
Fix

Horizontal Profiles

Position Reports

Time Latitude Longitude Heading Altitude Ground
Speed
22-Oct-16 07:37 36.083250 -115.130269 180 2054ft 0kts
22-Oct-16 07:38 36.083250 -115.130269 180 2054ft 0kts
22-Oct-16 07:39 36.083250 -115.130269 180 2054ft 0kts
22-Oct-16 07:40 36.083250 -115.130269 180 2054ft 0kts
22-Oct-16 07:41 36.083250 -115.130269 180 2054ft 0kts
22-Oct-16 07:42 36.083250 -115.130269 180 2054ft 0kts
22-Oct-16 07:43 36.083250 -115.130269 180 2054ft 0kts
22-Oct-16 07:44 36.083250 -115.130269 180 2054ft 0kts
22-Oct-16 07:45 36.083250 -115.130269 180 2054ft 0kts
22-Oct-16 07:46 36.083250 -115.130269 180 2054ft 0kts
22-Oct-16 07:47 36.083023 -115.130268 179 2054ft 2kts
22-Oct-16 07:48 36.080798 -115.130245 180 2057ft 15kts
22-Oct-16 07:49 36.078284 -115.128460 87 2055ft 13kts
22-Oct-16 07:50 36.078297 -115.123633 88 2048ft 13kts
22-Oct-16 07:51 36.077483 -115.121575 136 2045ft 0kts
22-Oct-16 07:52 36.077139 -115.121346 165 2044ft 7kts
22-Oct-16 07:53 36.076366 -115.125143 270 2052ft 68kts
22-Oct-16 07:54 36.076283 -115.178769 269 3362ft 188kts
22-Oct-16 07:55 36.061581 -115.255836 215 5490ft 263kts
22-Oct-16 07:56 35.993790 -115.290763 203 10070ft 271kts
22-Oct-16 07:57 35.909464 -115.308713 188 12278ft 330kts
22-Oct-16 07:58 35.816578 -115.309980 179 15471ft 346kts
22-Oct-16 07:59 35.718719 -115.299370 181 18415ft 360kts
22-Oct-16 08:00 35.634378 -115.355049 226 20947ft 363kts
22-Oct-16 08:01 35.564305 -115.447786 227 23390ft 376kts
22-Oct-16 08:02 35.492568 -115.543843 228 25800ft 390kts
22-Oct-16 08:03 35.418106 -115.643317 228 27980ft 401kts
22-Oct-16 08:04 35.341280 -115.746316 227 28032ft 420kts
22-Oct-16 08:05 35.261339 -115.852527 227 28008ft 425kts
22-Oct-16 08:06 35.181104 -115.958738 227 27998ft 425kts
22-Oct-16 08:07 35.100586 -116.064988 227 27997ft 425kts
22-Oct-16 08:08 35.020233 -116.170696 227 27999ft 425kts
22-Oct-16 08:09 34.939312 -116.276827 227 28018ft 427kts
22-Oct-16 08:10 34.859281 -116.381454 227 28017ft 429kts
22-Oct-16 08:11 34.776089 -116.481597 218 27004ft 403kts
22-Oct-16 08:12 34.689039 -116.564584 218 25688ft 394kts
22-Oct-16 08:13 34.603459 -116.645174 218 24373ft 386kts
22-Oct-16 08:14 34.519966 -116.724037 217 24011ft 384kts
22-Oct-16 08:15 34.435514 -116.803142 217 23685ft 385kts
22-Oct-16 08:16 34.351994 -116.881129 217 22097ft 373kts
22-Oct-16 08:17 34.270875 -116.956685 217 20671ft 365kts
22-Oct-16 08:18 34.190971 -117.030928 217 19460ft 359kts
22-Oct-16 08:19 34.115175 -117.102450 225 18995ft 344kts
22-Oct-16 08:20 34.066205 -117.202549 240 18997ft 347kts
22-Oct-16 08:21 34.041676 -117.314542 260 18994ft 351kts
22-Oct-16 08:22 34.030619 -117.431416 261 17505ft 350kts
22-Oct-16 08:23 34.019490 -117.548616 261 14769ft 357kts
22-Oct-16 08:24 34.008445 -117.664040 261 11874ft 334kts
22-Oct-16 08:25 33.998239 -117.772814 260 9621ft 326kts
22-Oct-16 08:26 33.988219 -117.874545 261 7742ft 292kts
22-Oct-16 08:27 33.978809 -117.969985 261 5934ft 278kts
22-Oct-16 08:28 33.970006 -118.061079 262 4974ft 259kts
22-Oct-16 08:29 33.961947 -118.141834 262 4053ft 229kts
22-Oct-16 08:30 33.954474 -118.215778 263 2882ft 216kts
22-Oct-16 08:31 33.947693 -118.282464 263 1786ft 185kts
22-Oct-16 08:32 33.941990 -118.338021 263 859ft 152kts
22-Oct-16 08:33 33.936718 -118.388507 263 115ft 144kts
22-Oct-16 08:34 33.934637 -118.407057 220 135ft 18kts
22-Oct-16 08:35 33.934071 -118.402896 82 130ft 15kts
22-Oct-16 08:36 33.934648 -118.397420 84 124ft 15kts
22-Oct-16 08:37 33.935180 -118.392220 82 116ft 13kts

Navigation Log

Ident Type
Flight plan parsing failed, navigation log unavailable